This is the latest recevied weather packets stored in our database for station/object AA4OM-2. If no packets are shown the sender has not sent any weather packets the latest 10 day(s).
| Time | Temp. | Humidity | Pressure | Rain* | Wind** | Luminosity | Snow |
|---|---|---|---|---|---|---|---|
| 1777759700 | 16.11° C | 51% | 1018.1 hPa | 0 mm | - | 298 W/m² | - |
| 1777758486 | 15.56° C | 54% | 1017.7 hPa | 0 mm | - | 153 W/m² | - |
| 1777758183 | 15.56° C | 54% | 1017.6 hPa | 0 mm | - | 156 W/m² | - |
| 1777757880 | 15.56° C | 52% | 1017.6 hPa | 0 mm | - | 268 W/m² | - |
| 1777756670 | 16.67° C | 53% | 1017.1 hPa | 0 mm | - | 175 W/m² | - |
| 1777756064 | 17.78° C | 44% | 1017 hPa | 0 mm | - | 157 W/m² | - |
| 1777753644 | 20° C | 32% | 1016.5 hPa | 0 mm | - | 554 W/m² | - |
| 1777753040 | 19.44° C | 37% | 1016.3 hPa | 0 mm | - | 768 W/m² | - |
| 1777750613 | 18.33° C | 42% | 1016.7 hPa | 0 mm | - | 343 W/m² | - |
| 1777749703 | 20° C | 37% | 1016.6 hPa | 0 mm | - | 662 W/m² | - |
| 1777749400 | 19.44° C | 37% | 1016.7 hPa | 0 mm | - | 988 W/m² | - |
| 1777748493 | 18.33° C | 39% | 1016.6 hPa | 0 mm | - | 917 W/m² | - |
| 1777746363 | 17.78° C | 45% | 1017.3 hPa | 0 mm | - | 1118 W/m² | - |
| 1777746059 | 17.22° C | 43% | 1017.6 hPa | 0 mm | - | 223 W/m² | - |
| 1777745757 | 17.78° C | 41% | 1017.2 hPa | 0 mm | - | 93 W/m² | - |
| 1777745456 | 17.22° C | 40% | 1017.4 hPa | 0 mm | - | 262 W/m² | - |
| 1777745153 | 17.22° C | 44% | 1017.4 hPa | 0 mm | - | 244 W/m² | - |
| 1777744849 | 17.22° C | 42% | 1017.5 hPa | 0 mm | - | 154 W/m² | - |
| 1777744544 | 17.22° C | 39% | 1017.6 hPa | 0 mm | - | 145 W/m² | - |
| 1777744240 | 17.78° C | 41% | 1017.7 hPa | 0 mm | - | 184 W/m² | - |
| 1777743937 | 17.22° C | 39% | 1017.7 hPa | 0 mm | - | 749 W/m² | - |
| 1777743628 | 17.22° C | 41% | 1017.5 hPa | 0 mm | - | 1073 W/m² | - |
| 1777743325 | 17.78° C | 40% | 1017.9 hPa | 0 mm | - | 145 W/m² | - |
| 1777743023 | 18.33° C | 38% | 1018 hPa | 0 mm | - | 955 W/m² | - |
| 1777742720 | 18.89° C | 37% | 1017.7 hPa | 0 mm | - | 1059 W/m² | - |
* Rain latest hour (hover to see other rain measurements)
** Current wind speed in m/s (hover to see current wind gust speed)